createdAt,value
2018-01-19T00:01:43.202Z,4.50
2018-01-19T00:04:10.164Z,4.50
2018-01-19T00:06:36.500Z,4.50
2018-01-19T00:09:02.793Z,4.50
2018-01-19T00:11:29.029Z,4.50
2018-01-19T00:13:55.280Z,4.60
2018-01-19T00:16:21.521Z,4.50
2018-01-19T00:18:47.711Z,4.50
2018-01-19T00:21:14.076Z,4.50
2018-01-19T00:23:41.040Z,4.50
2018-01-19T00:26:07.601Z,4.50
2018-01-19T00:28:33.956Z,4.50
2018-01-19T00:31:00.192Z,4.50
2018-01-19T00:33:26.388Z,4.40
2018-01-19T00:35:52.644Z,4.40
2018-01-19T00:38:18.851Z,4.40
2018-01-19T00:40:45.808Z,4.40
2018-01-19T00:43:12.074Z,4.40
2018-01-19T00:45:38.344Z,4.40
2018-01-19T00:48:04.597Z,4.30
2018-01-19T00:50:30.829Z,4.30
2018-01-19T00:52:57.249Z,4.30
2018-01-19T00:55:23.464Z,4.30
2018-01-19T00:57:49.729Z,4.30
2018-01-19T01:00:15.981Z,4.20
2018-01-19T01:02:42.209Z,4.20
2018-01-19T01:05:08.442Z,4.20
2018-01-19T01:07:34.705Z,4.20
2018-01-19T01:10:00.999Z,4.20
2018-01-19T01:12:27.913Z,4.20
2018-01-19T01:14:54.109Z,4.20
2018-01-19T01:17:21.275Z,4.30
2018-01-19T01:19:47.479Z,4.30
2018-01-19T01:22:13.702Z,4.30
2018-01-19T01:24:39.998Z,4.30
2018-01-19T01:27:06.262Z,4.30
2018-01-19T01:29:32.922Z,4.30
2018-01-19T01:32:00.165Z,4.30
2018-01-19T01:34:26.464Z,4.30
2018-01-19T01:36:52.648Z,4.30
2018-01-19T01:39:18.935Z,4.30
2018-01-19T01:41:46.084Z,4.30
2018-01-19T01:44:12.299Z,4.30
2018-01-19T01:46:38.488Z,4.30
2018-01-19T01:49:10.739Z,4.20
2018-01-19T01:51:36.907Z,4.30
2018-01-19T01:54:03.186Z,4.30
2018-01-19T01:56:30.443Z,4.20
2018-01-19T01:58:57.446Z,4.20
2018-01-19T02:01:23.631Z,4.20
2018-01-19T02:03:55.314Z,4.20
2018-01-19T02:06:21.668Z,4.20
2018-01-19T02:08:47.879Z,4.20
2018-01-19T02:11:14.208Z,4.20
2018-01-19T02:13:40.554Z,4.20
2018-01-19T02:16:06.799Z,4.20
2018-01-19T02:18:33.140Z,4.20
2018-01-19T02:21:10.908Z,4.20
2018-01-19T02:23:37.273Z,4.20
2018-01-19T02:26:03.504Z,4.20
2018-01-19T02:28:30.728Z,4.30
2018-01-19T02:30:57.715Z,4.20
2018-01-19T02:33:23.984Z,4.20
2018-01-19T02:35:50.226Z,4.20
2018-01-19T02:38:16.408Z,4.30
2018-01-19T02:40:43.396Z,4.30
2018-01-19T02:43:10.531Z,4.30
2018-01-19T02:45:37.482Z,4.30
2018-01-19T02:48:03.719Z,4.20
2018-01-19T02:50:30.195Z,4.20
2018-01-19T02:52:57.164Z,4.20
2018-01-19T02:55:23.470Z,4.20
2018-01-19T02:57:49.904Z,4.20
2018-01-19T03:00:16.147Z,4.20
2018-01-19T03:02:42.310Z,4.20
2018-01-19T03:05:09.279Z,4.00
2018-01-19T03:07:35.606Z,4.00
2018-01-19T03:10:02.596Z,4.00
2018-01-19T03:12:28.803Z,4.00
2018-01-19T03:14:55.134Z,4.00
2018-01-19T03:17:21.411Z,4.00
2018-01-19T03:19:47.618Z,4.00
2018-01-19T03:22:13.997Z,4.00
2018-01-19T03:24:40.201Z,4.00
2018-01-19T03:27:06.420Z,4.00
2018-01-19T03:29:33.343Z,4.00
2018-01-19T03:31:59.592Z,4.00
2018-01-19T03:34:25.822Z,3.80
2018-01-19T03:36:52.099Z,3.80
2018-01-19T03:39:18.295Z,3.90
2018-01-19T03:41:44.537Z,3.80
2018-01-19T03:44:10.817Z,3.80
2018-01-19T03:46:37.056Z,3.90
2018-01-19T03:49:03.323Z,3.90
2018-01-19T03:51:29.568Z,3.90
2018-01-19T03:54:11.536Z,3.90
2018-01-19T03:56:37.765Z,3.90
2018-01-19T03:59:03.966Z,3.90
2018-01-19T04:01:30.236Z,3.90
2018-01-19T04:03:57.177Z,4.00
2018-01-19T04:06:23.453Z,4.00
2018-01-19T04:08:49.656Z,4.00
2018-01-19T04:11:15.881Z,4.00
2018-01-19T04:13:42.103Z,4.10
2018-01-19T04:16:08.336Z,4.10
2018-01-19T04:18:34.614Z,4.10
2018-01-19T04:21:00.844Z,4.10
2018-01-19T04:23:27.077Z,4.00
2018-01-19T04:25:53.337Z,4.00
2018-01-19T04:28:20.308Z,3.90
2018-01-19T04:30:46.522Z,4.00
2018-01-19T04:33:12.966Z,4.00
2018-01-19T04:35:39.687Z,4.00
2018-01-19T04:38:06.763Z,3.90
2018-01-19T04:40:33.103Z,4.00
2018-01-19T04:42:59.438Z,4.00
2018-01-19T04:45:25.679Z,4.00
2018-01-19T04:47:51.972Z,3.90
2018-01-19T04:50:18.332Z,4.00
2018-01-19T04:52:44.548Z,4.00
2018-01-19T04:55:10.789Z,3.90
2018-01-19T04:57:37.189Z,3.90
2018-01-19T05:00:04.180Z,3.80
2018-01-19T05:02:30.438Z,3.80
2018-01-19T05:04:56.776Z,3.80
2018-01-19T05:07:23.028Z,3.80
2018-01-19T05:09:49.334Z,3.80
2018-01-19T05:12:15.604Z,3.70
2018-01-19T05:14:42.644Z,3.60
2018-01-19T05:17:08.846Z,3.60
2018-01-19T05:19:35.119Z,3.50
2018-01-19T05:22:01.520Z,3.50
2018-01-19T05:24:27.780Z,3.50
2018-01-19T05:26:54.020Z,3.40
2018-01-19T05:29:20.287Z,3.40
2018-01-19T05:31:46.504Z,3.40
2018-01-19T05:34:12.736Z,3.40
2018-01-19T05:36:39.188Z,3.40
2018-01-19T05:39:05.462Z,3.40
2018-01-19T05:41:31.638Z,3.50
2018-01-19T05:43:57.884Z,3.50
2018-01-19T05:46:24.060Z,3.50
2018-01-19T05:48:50.329Z,3.50
2018-01-19T05:51:16.869Z,3.50
2018-01-19T05:53:43.159Z,3.50
2018-01-19T05:56:09.394Z,3.50
2018-01-19T05:58:36.743Z,3.50
2018-01-19T06:01:03.051Z,3.50
2018-01-19T06:03:29.255Z,3.50
2018-01-19T06:05:56.164Z,3.50
2018-01-19T06:08:22.379Z,3.50
2018-01-19T06:10:48.603Z,3.50
2018-01-19T06:13:15.503Z,3.50
2018-01-19T06:15:41.944Z,3.50
2018-01-19T06:18:08.109Z,3.50
2018-01-19T06:20:34.348Z,3.50
2018-01-19T06:23:00.611Z,3.50
2018-01-19T06:25:27.620Z,3.50
2018-01-19T06:27:53.808Z,3.50
2018-01-19T06:30:20.013Z,3.50
2018-01-19T06:32:46.274Z,3.50
2018-01-19T06:35:13.236Z,3.50
2018-01-19T06:37:39.414Z,3.50
2018-01-19T06:40:05.822Z,3.50
2018-01-19T06:42:35.391Z,3.50
2018-01-19T06:45:01.801Z,3.50
2018-01-19T06:47:28.056Z,3.50
2018-01-19T06:49:56.061Z,3.50
2018-01-19T06:52:23.156Z,3.50
2018-01-19T06:54:49.436Z,3.50
2018-01-19T06:57:16.355Z,3.40
2018-01-19T06:59:42.589Z,3.30
2018-01-19T07:02:08.880Z,3.30
2018-01-19T07:04:35.111Z,3.30
2018-01-19T07:07:02.028Z,3.20
2018-01-19T07:09:28.379Z,3.30
2018-01-19T07:11:54.608Z,3.20
2018-01-19T07:14:20.801Z,3.20
2018-01-19T07:16:47.745Z,3.20
2018-01-19T07:19:13.983Z,3.20
2018-01-19T07:21:40.916Z,3.20
2018-01-19T07:24:07.156Z,3.20
2018-01-19T07:26:33.341Z,3.20
2018-01-19T07:28:59.608Z,3.30
2018-01-19T07:31:25.814Z,3.30
2018-01-19T07:33:52.908Z,3.30
2018-01-19T07:36:19.187Z,3.30
2018-01-19T07:38:45.347Z,3.30
2018-01-19T07:41:11.711Z,3.40
2018-01-19T07:43:37.888Z,3.40
2018-01-19T07:46:04.119Z,3.40
2018-01-19T07:48:30.292Z,3.40
2018-01-19T07:50:56.455Z,3.40
2018-01-19T07:53:23.415Z,3.40
2018-01-19T07:55:49.607Z,3.40
2018-01-19T07:58:15.953Z,3.50
2018-01-19T08:00:42.148Z,3.50
2018-01-19T08:03:08.340Z,3.50
2018-01-19T08:05:34.648Z,3.50
2018-01-19T08:08:00.829Z,3.50
2018-01-19T08:10:27.008Z,3.50
2018-01-19T08:12:54.042Z,3.60
2018-01-19T08:15:20.216Z,3.60
2018-01-19T08:17:46.509Z,3.60
2018-01-19T08:20:12.853Z,3.60
2018-01-19T08:22:39.072Z,3.60
2018-01-19T08:25:05.275Z,3.60
2018-01-19T08:27:32.211Z,3.60
2018-01-19T08:29:58.379Z,3.60
2018-01-19T08:32:24.595Z,3.60
2018-01-19T08:34:50.771Z,3.60
2018-01-19T08:37:16.960Z,3.60
2018-01-19T08:39:43.196Z,3.60
2018-01-19T08:42:09.507Z,3.60
2018-01-19T08:44:35.705Z,3.60
2018-01-19T08:47:01.910Z,3.60
2018-01-19T08:49:28.204Z,3.60
2018-01-19T08:51:55.168Z,3.60
2018-01-19T08:54:22.212Z,3.70
2018-01-19T08:56:48.372Z,3.70
2018-01-19T08:59:15.417Z,3.80
2018-01-19T09:01:43.228Z,3.80
2018-01-19T09:04:09.408Z,3.80
2018-01-19T09:06:35.587Z,3.80
2018-01-19T09:09:02.024Z,3.80
2018-01-19T09:11:28.980Z,3.80
2018-01-19T09:13:55.168Z,3.80
2018-01-19T09:16:21.513Z,3.80
2018-01-19T09:18:47.746Z,3.90
2018-01-19T09:21:13.962Z,3.90
2018-01-19T09:23:40.271Z,3.90
2018-01-19T09:26:06.436Z,3.90
2018-01-19T09:28:33.412Z,4.00
2018-01-19T09:30:59.608Z,4.00
2018-01-19T09:33:25.924Z,4.10
2018-01-19T09:35:52.101Z,4.10
2018-01-19T09:38:18.310Z,4.10
2018-01-19T09:40:44.535Z,4.10
2018-01-19T09:43:10.722Z,4.10
2018-01-19T09:45:36.907Z,4.10
2018-01-19T09:48:03.170Z,4.10
2018-01-19T09:50:29.386Z,4.20
2018-01-19T09:52:55.552Z,4.20
2018-01-19T09:55:21.850Z,4.20
2018-01-19T09:57:48.750Z,4.30
2018-01-19T10:00:15.065Z,4.30
2018-01-19T10:02:41.328Z,4.30
2018-01-19T10:05:07.523Z,4.30
2018-01-19T10:07:33.700Z,4.30
2018-01-19T10:09:59.974Z,4.40
2018-01-19T10:12:26.207Z,4.40
2018-01-19T10:14:53.449Z,4.40
2018-01-19T10:17:19.638Z,4.40
2018-01-19T10:19:45.859Z,4.40
2018-01-19T10:22:12.020Z,4.40
2018-01-19T10:24:38.265Z,4.50
2018-01-19T10:27:05.411Z,4.60
2018-01-19T10:29:31.575Z,4.50
2018-01-19T10:31:57.766Z,4.60
2018-01-19T10:34:24.028Z,4.70
2018-01-19T10:36:50.340Z,4.70
2018-01-19T10:39:16.542Z,4.80
2018-01-19T10:41:42.882Z,4.80
2018-01-19T10:44:09.054Z,4.90
2018-01-19T10:46:35.244Z,5.00
2018-01-19T10:49:01.652Z,5.00
2018-01-19T10:51:31.614Z,5.00
2018-01-19T10:53:57.931Z,5.00
2018-01-19T10:56:24.148Z,5.00
2018-01-19T10:58:50.348Z,5.10
2018-01-19T11:01:17.563Z,5.10
2018-01-19T11:03:43.933Z,5.10
2018-01-19T11:06:10.154Z,5.10
2018-01-19T11:08:36.449Z,5.10
2018-01-19T11:11:03.407Z,5.20
2018-01-19T11:13:30.432Z,5.20
2018-01-19T11:15:56.625Z,5.20
2018-01-19T11:18:23.662Z,5.30
2018-01-19T11:20:49.831Z,5.20
2018-01-19T11:23:16.035Z,5.30
2018-01-19T11:25:42.238Z,5.30
2018-01-19T11:28:08.440Z,5.30
2018-01-19T11:30:34.679Z,5.40
2018-01-19T11:33:01.629Z,5.40
2018-01-19T11:35:28.649Z,5.40
2018-01-19T11:37:54.885Z,5.30
2018-01-19T11:40:21.131Z,5.40
2018-01-19T11:42:47.525Z,5.40
2018-01-19T11:45:13.739Z,5.40
2018-01-19T11:47:40.053Z,5.50
2018-01-19T11:50:09.984Z,5.40
2018-01-19T11:52:36.267Z,5.50
2018-01-19T11:55:03.484Z,5.50
2018-01-19T11:57:29.676Z,5.50
2018-01-19T11:59:56.630Z,5.60
2018-01-19T12:02:23.167Z,5.60
2018-01-19T12:04:49.522Z,5.60
2018-01-19T12:07:15.796Z,5.70
2018-01-19T12:09:42.099Z,5.70
2018-01-19T12:12:09.153Z,5.70
2018-01-19T12:14:35.352Z,5.70
2018-01-19T12:17:01.533Z,5.70
2018-01-19T12:19:27.920Z,5.80
2018-01-19T12:21:54.162Z,5.80
2018-01-19T12:24:20.405Z,5.80
2018-01-19T12:26:46.889Z,5.80
2018-01-19T12:29:13.093Z,5.80
2018-01-19T12:31:39.365Z,5.90
2018-01-19T12:34:05.684Z,5.90
2018-01-19T12:36:31.936Z,5.90
2018-01-19T12:38:58.188Z,5.90
2018-01-19T12:41:24.424Z,5.90
2018-01-19T12:43:50.698Z,6.00
2018-01-19T12:46:16.970Z,6.00
2018-01-19T12:48:43.918Z,6.00
2018-01-19T12:51:11.427Z,6.10
2018-01-19T12:53:37.653Z,6.10
2018-01-19T12:56:03.861Z,6.10
2018-01-19T12:58:30.163Z,6.10
2018-01-19T13:00:56.402Z,6.20
2018-01-19T13:03:23.632Z,6.30
2018-01-19T13:05:49.857Z,6.30
2018-01-19T13:08:16.989Z,6.50
2018-01-19T13:10:43.175Z,6.50
2018-01-19T13:13:09.365Z,6.50
2018-01-19T13:15:35.770Z,6.40
2018-01-19T13:18:02.019Z,6.40
2018-01-19T13:20:28.185Z,6.40
2018-01-19T13:22:54.460Z,6.40
2018-01-19T13:25:20.660Z,6.40
2018-01-19T13:27:46.908Z,6.40
2018-01-19T13:30:13.261Z,6.40
2018-01-19T13:32:39.456Z,6.40
2018-01-19T13:35:05.772Z,6.30
2018-01-19T13:37:32.960Z,6.30
2018-01-19T13:40:01.088Z,6.40
2018-01-19T13:42:30.730Z,6.40
2018-01-19T13:44:57.175Z,6.40
2018-01-19T13:47:23.384Z,6.40
2018-01-19T13:49:49.615Z,6.40
2018-01-19T13:52:17.500Z,6.30
2018-01-19T13:54:43.813Z,6.20
2018-01-19T13:57:09.984Z,6.30
2018-01-19T13:59:36.237Z,6.30
2018-01-19T14:02:02.551Z,6.30
2018-01-19T14:04:36.097Z,6.30
2018-01-19T14:07:02.425Z,6.30
2018-01-19T14:09:28.712Z,6.30
2018-01-19T14:11:54.926Z,6.20
2018-01-19T14:14:21.133Z,6.30
2018-01-19T14:16:47.506Z,6.30
2018-01-19T14:19:13.732Z,6.20
2018-01-19T14:21:39.970Z,6.20
2018-01-19T14:24:06.400Z,6.30
2018-01-19T14:26:32.580Z,6.30
2018-01-19T14:28:58.793Z,6.40
2018-01-19T14:31:25.104Z,6.40
2018-01-19T14:33:53.057Z,6.40
2018-01-19T14:36:19.247Z,6.40
2018-01-19T14:38:45.440Z,6.50
2018-01-19T14:41:11.718Z,6.50
2018-01-19T14:43:38.661Z,6.50
2018-01-19T14:46:04.908Z,6.50
2018-01-19T14:48:35.224Z,6.50
2018-01-19T14:51:01.661Z,6.50
2018-01-19T14:53:28.016Z,6.50
2018-01-19T14:55:55.072Z,6.30
2018-01-19T14:58:21.402Z,6.40
2018-01-19T15:00:47.740Z,6.30
2018-01-19T15:03:14.058Z,6.30
2018-01-19T15:05:40.284Z,6.30
2018-01-19T15:08:06.472Z,6.20
2018-01-19T15:10:32.807Z,6.10
2018-01-19T15:12:59.031Z,6.10
2018-01-19T15:15:25.999Z,5.90
2018-01-19T15:17:52.206Z,5.90
2018-01-19T15:20:18.484Z,5.80
2018-01-19T15:22:44.693Z,5.80
2018-01-19T15:25:11.648Z,5.60
2018-01-19T15:27:37.818Z,5.60
2018-01-19T15:30:04.223Z,5.60
2018-01-19T15:32:30.399Z,5.50
2018-01-19T15:34:56.590Z,5.50
2018-01-19T15:37:23.544Z,5.40
2018-01-19T15:39:49.723Z,5.40
2018-01-19T15:42:16.038Z,5.30
2018-01-19T15:44:42.983Z,5.20
2018-01-19T15:47:10.624Z,5.20
2018-01-19T15:49:36.842Z,5.20
2018-01-19T15:52:03.177Z,5.20
2018-01-19T15:54:29.421Z,5.20
2018-01-19T15:56:55.631Z,5.20
2018-01-19T15:59:22.740Z,5.20
2018-01-19T16:04:51.892Z,5.20
2018-01-19T16:07:18.155Z,5.20
2018-01-19T16:09:44.434Z,5.10
2018-01-19T16:12:12.518Z,5.10
2018-01-19T16:14:39.474Z,5.10
2018-01-19T16:17:06.757Z,5.10
2018-01-19T16:19:33.140Z,5.10
2018-01-19T16:21:59.424Z,5.10
2018-01-19T16:24:26.334Z,5.10
2018-01-19T16:26:52.563Z,5.10
2018-01-19T16:29:18.997Z,5.00
2018-01-19T16:31:45.243Z,4.90
2018-01-19T16:34:12.952Z,4.90
2018-01-19T16:36:39.140Z,4.80
2018-01-19T16:39:05.373Z,4.80
2018-01-19T16:41:32.404Z,4.70
2018-01-19T16:43:58.683Z,4.70
2018-01-19T16:46:25.317Z,4.70
2018-01-19T16:48:55.792Z,4.70
2018-01-19T16:51:22.450Z,4.60
2018-01-19T16:53:48.744Z,4.60
2018-01-19T16:56:14.965Z,4.60
2018-01-19T16:58:41.356Z,4.60
2018-01-19T17:01:07.621Z,4.50
2018-01-19T17:03:33.883Z,4.50
2018-01-19T17:06:00.260Z,4.50
2018-01-19T17:08:26.524Z,4.50
2018-01-19T17:10:52.754Z,4.40
2018-01-19T17:13:21.973Z,4.30
2018-01-19T17:15:48.201Z,4.30
2018-01-19T17:18:14.542Z,4.20
2018-01-19T17:20:41.597Z,4.10
2018-01-19T17:23:11.488Z,4.10
2018-01-19T17:25:37.756Z,4.00
2018-01-19T17:28:05.642Z,3.90
2018-01-19T17:30:54.107Z,3.90
2018-01-19T17:33:21.499Z,3.90
2018-01-19T17:36:10.006Z,3.90
2018-01-19T17:38:40.739Z,3.90
2018-01-19T17:41:07.232Z,3.80
2018-01-19T17:43:34.484Z,3.70
2018-01-19T17:46:01.534Z,3.70
2018-01-19T17:48:27.765Z,3.70
2018-01-19T17:50:54.081Z,3.60
2018-01-19T17:53:20.313Z,3.70
2018-01-19T17:55:46.768Z,3.60
2018-01-19T17:58:14.605Z,3.60
2018-01-19T18:00:41.036Z,3.60
2018-01-19T18:03:07.656Z,3.50
2018-01-19T18:05:33.945Z,3.50
2018-01-19T18:08:01.064Z,3.50
2018-01-19T18:10:27.337Z,3.50
2018-01-19T18:12:53.624Z,3.50
2018-01-19T18:15:20.185Z,3.50
2018-01-19T18:17:46.667Z,3.40
2018-01-19T18:20:12.904Z,3.40
2018-01-19T18:22:39.084Z,3.40
2018-01-19T18:25:05.378Z,3.40
2018-01-19T18:27:32.401Z,3.30
2018-01-19T18:29:58.638Z,3.30
2018-01-19T18:32:26.942Z,3.20
2018-01-19T18:34:53.388Z,3.20
2018-01-19T18:37:19.617Z,3.20
2018-01-19T18:39:45.837Z,3.20
2018-01-19T18:42:13.039Z,3.10
2018-01-19T18:44:39.311Z,3.10
2018-01-19T18:47:05.506Z,3.10
2018-01-19T18:49:31.891Z,3.00
2018-01-19T18:51:58.103Z,3.00
2018-01-19T18:54:24.392Z,3.00
2018-01-19T18:56:51.273Z,2.90
2018-01-19T18:59:17.509Z,2.90
2018-01-19T19:01:44.872Z,2.90
2018-01-19T19:04:11.241Z,2.80
2018-01-19T19:06:38.294Z,2.80
2018-01-19T19:09:04.550Z,2.80
2018-01-19T19:11:30.756Z,2.80
2018-01-19T19:13:57.014Z,2.80
2018-01-19T19:16:23.398Z,2.80
2018-01-19T19:18:49.676Z,2.80
2018-01-19T19:21:16.048Z,2.70
2018-01-19T19:23:42.494Z,2.60
2018-01-19T19:26:09.461Z,2.60
2018-01-19T19:28:35.696Z,2.60
2018-01-19T19:31:02.654Z,2.50
2018-01-19T19:33:29.729Z,2.50
2018-01-19T19:35:55.932Z,2.40
2018-01-19T19:38:22.145Z,2.50
2018-01-19T19:40:48.516Z,2.40
2018-01-19T19:43:16.816Z,2.40
2018-01-19T19:45:43.020Z,2.30
2018-01-19T19:48:09.240Z,2.30
2018-01-19T19:50:35.556Z,2.30
2018-01-19T19:53:01.776Z,2.30
2018-01-19T19:55:27.988Z,2.30
2018-01-19T19:57:54.332Z,2.30
2018-01-19T20:00:20.588Z,2.20
2018-01-19T20:02:47.691Z,2.10
2018-01-19T20:05:14.100Z,2.00
2018-01-19T20:07:40.372Z,2.00
2018-01-19T20:10:06.576Z,1.90
2018-01-19T20:12:32.745Z,1.90
2018-01-19T20:14:58.937Z,2.00
2018-01-19T20:17:25.141Z,2.00
2018-01-19T20:19:51.347Z,2.00
2018-01-19T20:22:18.397Z,1.90
2018-01-19T20:24:44.613Z,1.90
2018-01-19T20:27:10.826Z,1.90
2018-01-19T20:29:37.248Z,1.80
2018-01-19T20:32:04.163Z,1.90
2018-01-19T20:34:30.373Z,1.90
2018-01-19T20:36:56.749Z,1.90
2018-01-19T20:39:22.961Z,2.00
2018-01-19T20:41:49.179Z,2.00
2018-01-19T20:44:15.620Z,2.10
2018-01-19T20:46:42.738Z,2.20
2018-01-19T20:49:08.992Z,2.10
2018-01-19T20:51:35.200Z,2.20
2018-01-19T20:54:01.492Z,2.20
2018-01-19T20:56:27.728Z,2.20
2018-01-19T20:58:53.915Z,2.20
2018-01-19T21:01:20.335Z,2.20
2018-01-19T21:03:47.451Z,2.20
2018-01-19T21:06:13.688Z,2.20
2018-01-19T21:08:40.004Z,2.20
2018-01-19T21:11:06.268Z,2.20
2018-01-19T21:13:32.469Z,2.10
2018-01-19T21:15:58.874Z,2.10
2018-01-19T21:18:25.286Z,2.10
2018-01-19T21:20:51.480Z,2.10
2018-01-19T21:23:18.443Z,2.10
2018-01-19T21:25:44.707Z,2.00
2018-01-19T21:28:11.009Z,2.10
2018-01-19T21:30:37.259Z,2.00
2018-01-19T21:33:04.381Z,2.00
2018-01-19T21:35:30.542Z,2.00
2018-01-19T21:37:56.808Z,2.00
2018-01-19T21:40:23.768Z,2.00
2018-01-19T21:42:50.021Z,2.00
2018-01-19T21:45:16.253Z,2.00
2018-01-19T21:47:42.428Z,2.00
2018-01-19T21:50:09.725Z,1.90
2018-01-19T21:52:36.112Z,1.90
2018-01-19T21:55:02.471Z,1.90
2018-01-19T21:57:28.750Z,1.90
2018-01-19T21:59:54.961Z,1.90
2018-01-19T22:02:21.209Z,1.90
2018-01-19T22:04:47.770Z,1.90
2018-01-19T22:07:14.213Z,1.80
2018-01-19T22:09:40.562Z,1.80
2018-01-19T22:12:06.844Z,1.80
2018-01-19T22:14:34.029Z,1.80
2018-01-19T22:17:00.962Z,1.80
2018-01-19T22:19:27.160Z,1.80
2018-01-19T22:21:54.077Z,1.80
2018-01-19T22:24:21.208Z,1.80
2018-01-19T22:26:47.411Z,1.80
2018-01-19T22:29:13.595Z,1.80
2018-01-19T22:31:39.979Z,1.70
2018-01-19T22:34:06.186Z,1.70
2018-01-19T22:36:32.440Z,1.70
2018-01-19T22:38:58.979Z,1.70
2018-01-19T22:41:26.002Z,1.60
2018-01-19T22:43:52.393Z,1.60
2018-01-19T22:46:19.042Z,1.60
2018-01-19T22:48:45.529Z,1.60
2018-01-19T22:51:11.946Z,1.70
2018-01-19T22:53:38.263Z,1.60
2018-01-19T22:56:04.831Z,1.60
2018-01-19T22:58:31.187Z,1.70
2018-01-19T23:00:57.558Z,1.60
2018-01-19T23:03:23.952Z,1.70
2018-01-19T23:05:50.200Z,1.70
2018-01-19T23:08:17.501Z,1.70
2018-01-19T23:10:43.838Z,1.70
2018-01-19T23:13:10.723Z,1.80
2018-01-19T23:15:37.156Z,1.80
2018-01-19T23:18:03.697Z,1.80
2018-01-19T23:20:30.177Z,1.80
2018-01-19T23:22:56.650Z,1.80
2018-01-19T23:25:23.077Z,1.80
2018-01-19T23:27:50.195Z,1.90
2018-01-19T23:30:16.550Z,1.90
2018-01-19T23:32:43.134Z,1.90
2018-01-19T23:35:10.392Z,1.90
2018-01-19T23:37:37.590Z,2.00
2018-01-19T23:40:04.096Z,1.90
2018-01-19T23:42:31.257Z,2.00
2018-01-19T23:44:57.706Z,1.90
2018-01-19T23:47:24.760Z,2.00
2018-01-19T23:49:51.263Z,2.00
2018-01-19T23:52:17.582Z,2.00
2018-01-19T23:54:44.572Z,1.90
2018-01-19T23:57:13.822Z,1.90
2018-01-19T23:59:40.196Z,1.90
